createdAt,value
2019-01-06T00:00:27.291Z,-3.71
2019-01-06T00:00:58.447Z,-3.70
2019-01-06T00:01:29.609Z,-3.70
2019-01-06T00:02:00.763Z,-3.72
2019-01-06T00:02:31.930Z,-3.70
2019-01-06T00:03:03.087Z,-3.73
2019-01-06T00:03:34.249Z,-3.75
2019-01-06T00:04:05.402Z,-3.75
2019-01-06T00:04:36.552Z,-3.79
2019-01-06T00:05:07.752Z,-3.79
2019-01-06T00:05:38.902Z,-3.79
2019-01-06T00:06:10.049Z,-3.80
2019-01-06T00:06:41.208Z,-3.82
2019-01-06T00:07:12.344Z,-3.84
2019-01-06T00:07:43.487Z,-3.91
2019-01-06T00:08:15.954Z,-3.92
2019-01-06T00:08:47.163Z,-3.90
2019-01-06T00:09:18.335Z,-3.91
2019-01-06T00:09:49.495Z,-3.90
2019-01-06T00:10:20.636Z,-3.94
2019-01-06T00:10:51.800Z,-3.91
2019-01-06T00:11:22.946Z,-3.92
2019-01-06T00:11:54.135Z,-3.93
2019-01-06T00:12:25.309Z,-3.92
2019-01-06T00:12:56.501Z,-3.91
2019-01-06T00:13:27.656Z,-3.92
2019-01-06T00:13:58.810Z,-3.96
2019-01-06T00:14:29.971Z,-3.92
2019-01-06T00:15:01.124Z,-3.94
2019-01-06T00:15:32.282Z,-3.94
2019-01-06T00:16:03.477Z,-3.93
2019-01-06T00:16:34.628Z,-3.94
2019-01-06T00:17:05.779Z,-3.97
2019-01-06T00:17:36.943Z,-3.96
2019-01-06T00:18:08.100Z,-3.97
2019-01-06T00:18:39.253Z,-3.96
2019-01-06T00:19:10.400Z,-3.98
2019-01-06T00:19:41.551Z,-3.98
2019-01-06T00:20:12.702Z,-3.98
2019-01-06T00:20:43.849Z,-3.98
2019-01-06T00:21:15.049Z,-3.95
2019-01-06T00:21:46.201Z,-3.94
2019-01-06T00:22:17.355Z,-3.93
2019-01-06T00:22:48.513Z,-3.93
2019-01-06T00:23:19.720Z,-3.91
2019-01-06T00:23:50.894Z,-3.92
2019-01-06T00:24:23.244Z,-3.91
2019-01-06T00:24:54.371Z,-3.90
2019-01-06T00:25:25.522Z,-3.86
2019-01-06T00:25:56.672Z,-3.87
2019-01-06T00:26:27.827Z,-3.85
2019-01-06T00:26:58.980Z,-3.83
2019-01-06T00:27:30.130Z,-3.83
2019-01-06T00:28:01.276Z,-3.82
2019-01-06T00:28:32.483Z,-3.85
2019-01-06T00:29:03.634Z,-3.82
2019-01-06T00:29:34.824Z,-3.82
2019-01-06T00:30:05.964Z,-3.82
2019-01-06T00:30:37.123Z,-3.80
2019-01-06T00:31:08.260Z,-3.80
2019-01-06T00:31:39.414Z,-3.76
2019-01-06T00:32:10.647Z,-3.77
2019-01-06T00:32:41.803Z,-3.78
2019-01-06T00:33:12.954Z,-3.75
2019-01-06T00:33:44.145Z,-3.74
2019-01-06T00:34:15.296Z,-3.72
2019-01-06T00:34:46.448Z,-3.75
2019-01-06T00:35:17.605Z,-3.74
2019-01-06T00:35:48.754Z,-3.75
2019-01-06T00:36:19.913Z,-3.72
2019-01-06T00:36:51.143Z,-3.68
2019-01-06T00:37:22.274Z,-3.65
2019-01-06T00:37:53.459Z,-3.65
2019-01-06T00:38:24.616Z,-3.66
2019-01-06T00:38:55.769Z,-3.64
2019-01-06T00:39:26.975Z,-3.66
2019-01-06T00:39:58.132Z,-3.63
2019-01-06T00:40:29.286Z,-3.62
2019-01-06T00:41:00.438Z,-3.62
2019-01-06T00:41:32.958Z,-3.61
2019-01-06T00:42:06.767Z,-3.60
2019-01-06T00:42:37.956Z,-3.58
2019-01-06T00:43:09.159Z,-3.55
2019-01-06T00:43:40.361Z,-3.55
2019-01-06T00:44:11.532Z,-5.64
2019-01-06T00:44:42.680Z,-3.52
2019-01-06T00:45:13.880Z,-3.50
2019-01-06T00:45:45.025Z,-3.49
2019-01-06T00:46:16.181Z,-3.50
2019-01-06T00:46:47.333Z,-3.52
2019-01-06T00:47:18.489Z,-3.51
2019-01-06T00:47:49.643Z,-3.50
2019-01-06T00:48:20.795Z,-3.50
2019-01-06T00:48:51.945Z,-3.52
2019-01-06T00:49:23.112Z,-3.52
2019-01-06T00:49:54.266Z,-3.52
2019-01-06T00:50:25.461Z,-3.53
2019-01-06T00:50:56.616Z,-3.51
2019-01-06T00:51:27.771Z,-3.41
2019-01-06T00:51:58.980Z,-3.34
2019-01-06T00:52:30.140Z,-3.37
2019-01-06T00:53:01.297Z,-3.39
2019-01-06T00:53:32.460Z,-3.41
2019-01-06T00:54:03.626Z,-3.42
2019-01-06T00:54:34.787Z,-3.42
2019-01-06T00:55:05.942Z,-3.41
2019-01-06T00:55:37.149Z,-3.38
2019-01-06T00:56:08.361Z,-3.36
2019-01-06T00:56:39.509Z,-3.31
2019-01-06T00:57:10.661Z,-3.24
2019-01-06T00:57:41.806Z,-3.17
2019-01-06T00:58:12.977Z,-3.17
2019-01-06T00:58:44.129Z,-3.20
2019-01-06T00:59:15.286Z,-3.21
2019-01-06T00:59:51.177Z,-4.29
2019-01-06T01:00:27.489Z,-3.32
2019-01-06T01:01:00.744Z,-3.28
2019-01-06T01:01:33.916Z,-3.23
2019-01-06T01:02:06.245Z,-3.13
2019-01-06T01:02:38.586Z,-3.03
2019-01-06T01:03:09.843Z,-3.06
2019-01-06T01:03:41.046Z,-3.07
2019-01-06T01:04:12.263Z,-3.09
2019-01-06T01:04:43.408Z,-3.08
2019-01-06T01:05:14.577Z,-3.10
2019-01-06T01:05:45.719Z,-3.16
2019-01-06T01:06:16.879Z,-3.21
2019-01-06T01:06:48.086Z,-3.26
2019-01-06T01:07:19.246Z,-3.27
2019-01-06T01:07:50.401Z,-3.24
2019-01-06T01:08:21.581Z,-3.22
2019-01-06T01:08:52.753Z,-3.20
2019-01-06T01:09:23.910Z,-3.17
2019-01-06T01:09:55.068Z,-3.08
2019-01-06T01:10:26.221Z,-3.07
2019-01-06T01:10:57.390Z,-3.12
2019-01-06T01:11:28.615Z,-3.14
2019-01-06T01:11:59.820Z,-3.24
2019-01-06T01:12:30.969Z,-3.15
2019-01-06T01:13:02.111Z,-3.16
2019-01-06T01:13:33.264Z,-3.18
2019-01-06T01:14:04.434Z,-3.20
2019-01-06T01:14:35.591Z,-3.24
2019-01-06T01:15:06.744Z,-3.25
2019-01-06T01:15:37.900Z,-3.24
2019-01-06T01:16:09.057Z,-3.29
2019-01-06T01:16:40.214Z,-3.34
2019-01-06T01:17:11.495Z,-3.33
2019-01-06T01:17:42.703Z,-3.33
2019-01-06T01:18:13.862Z,-3.36
2019-01-06T01:18:45.013Z,-3.34
2019-01-06T01:19:16.179Z,-3.34
2019-01-06T01:19:47.331Z,-3.38
2019-01-06T01:20:18.487Z,-3.39
2019-01-06T01:20:49.632Z,-3.39
2019-01-06T01:21:20.776Z,-3.37
2019-01-06T01:21:51.961Z,-3.35
2019-01-06T01:22:23.117Z,-3.36
2019-01-06T01:22:54.316Z,-3.36
2019-01-06T01:23:25.518Z,-3.37
2019-01-06T01:23:56.666Z,-3.36
2019-01-06T01:24:27.817Z,-3.36
2019-01-06T01:24:58.977Z,-3.34
2019-01-06T01:25:30.121Z,-3.37
2019-01-06T01:26:01.275Z,-3.35
2019-01-06T01:26:32.429Z,-3.35
2019-01-06T01:27:03.581Z,-3.33
2019-01-06T01:27:34.788Z,-3.34
2019-01-06T01:28:05.942Z,-3.33
2019-01-06T01:28:37.091Z,-3.32
2019-01-06T01:29:11.943Z,-3.32
2019-01-06T01:29:44.883Z,-3.28
2019-01-06T01:30:16.191Z,-3.15
2019-01-06T01:30:47.751Z,-3.02
2019-01-06T01:31:20.620Z,-2.94
2019-01-06T01:31:51.751Z,-2.94
2019-01-06T01:32:24.075Z,-2.93
2019-01-06T01:32:58.872Z,-2.93
2019-01-06T01:33:32.621Z,-3.01
2019-01-06T01:34:04.651Z,-3.05
2019-01-06T01:34:38.322Z,-3.05
2019-01-06T01:35:11.754Z,-2.96
2019-01-06T01:35:43.367Z,-2.89
2019-01-06T01:36:14.549Z,-2.88
2019-01-06T01:36:47.003Z,-2.90
2019-01-06T01:37:18.178Z,-2.94
2019-01-06T01:37:49.330Z,-2.95
2019-01-06T01:38:20.508Z,-2.99
2019-01-06T01:38:51.665Z,-3.04
2019-01-06T01:39:22.913Z,-3.11
2019-01-06T01:39:54.106Z,-3.14
2019-01-06T01:40:25.219Z,-3.18
2019-01-06T01:40:56.373Z,-3.17
2019-01-06T01:41:27.573Z,-3.19
2019-01-06T01:41:58.734Z,-3.22
2019-01-06T01:42:29.900Z,-3.15
2019-01-06T01:43:01.069Z,-3.09
2019-01-06T01:43:32.222Z,-3.10
2019-01-06T01:44:03.381Z,-3.15
2019-01-06T01:44:34.531Z,-3.16
2019-01-06T01:45:05.727Z,-3.15
2019-01-06T01:45:36.884Z,-3.16
2019-01-06T01:46:08.077Z,-3.18
2019-01-06T01:46:39.241Z,-3.20
2019-01-06T01:47:10.388Z,-3.20
2019-01-06T01:47:41.550Z,-3.24
2019-01-06T01:48:12.708Z,-3.25
2019-01-06T01:48:43.856Z,-3.27
2019-01-06T01:49:15.011Z,-3.26
2019-01-06T01:49:46.174Z,-3.25
2019-01-06T01:50:17.332Z,-3.25
2019-01-06T01:50:48.564Z,-3.28
2019-01-06T01:51:19.747Z,-3.26
2019-01-06T01:51:50.905Z,-3.24
2019-01-06T01:52:22.053Z,-3.22
2019-01-06T01:52:53.267Z,-3.19
2019-01-06T01:53:24.418Z,-3.19
2019-01-06T01:53:55.611Z,-3.17
2019-01-06T01:54:26.756Z,-3.14
2019-01-06T01:54:57.917Z,-3.11
2019-01-06T01:55:29.070Z,-3.09
2019-01-06T01:56:00.227Z,-3.07
2019-01-06T01:56:31.378Z,-3.04
2019-01-06T01:57:02.532Z,-3.03
2019-01-06T01:57:33.693Z,-3.01
2019-01-06T01:58:04.852Z,-2.98
2019-01-06T01:58:36.083Z,-2.95
2019-01-06T01:59:07.279Z,-2.95
2019-01-06T01:59:38.436Z,-2.94
2019-01-06T02:00:09.586Z,-2.91
2019-01-06T02:00:40.736Z,-2.91
2019-01-06T02:01:11.944Z,-2.88
2019-01-06T02:01:43.099Z,-2.86
2019-01-06T02:02:14.265Z,-2.87
2019-01-06T02:02:45.436Z,-2.84
2019-01-06T02:03:16.594Z,-2.83
2019-01-06T02:03:47.752Z,-2.83
2019-01-06T02:04:18.930Z,-2.80
2019-01-06T02:04:50.058Z,-2.79
2019-01-06T02:05:21.243Z,-2.76
2019-01-06T02:05:52.395Z,-2.74
2019-01-06T02:06:23.591Z,-2.72
2019-01-06T02:06:54.748Z,-2.71
2019-01-06T02:07:25.923Z,-2.67
2019-01-06T02:07:57.121Z,-2.62
2019-01-06T02:08:28.285Z,-2.57
2019-01-06T02:08:59.443Z,-2.53
2019-01-06T02:09:30.613Z,-2.50
2019-01-06T02:10:01.807Z,-2.49
2019-01-06T02:10:33.017Z,-2.52
2019-01-06T02:11:04.245Z,-2.53
2019-01-06T02:11:35.404Z,-2.53
2019-01-06T02:12:06.554Z,-2.55
2019-01-06T02:12:37.725Z,-2.55
2019-01-06T02:13:08.877Z,-2.56
2019-01-06T02:13:40.047Z,-2.54
2019-01-06T02:14:11.208Z,-2.55
2019-01-06T02:14:42.369Z,-2.55
2019-01-06T02:15:13.613Z,-2.57
2019-01-06T02:15:44.772Z,-2.58
2019-01-06T02:16:15.962Z,-2.56
2019-01-06T02:16:47.131Z,-2.56
2019-01-06T02:17:18.288Z,-2.58
2019-01-06T02:17:49.486Z,-2.58
2019-01-06T02:18:20.733Z,-2.59
2019-01-06T02:18:51.905Z,-2.61
2019-01-06T02:19:23.064Z,-2.55
2019-01-06T02:19:54.225Z,-2.52
2019-01-06T02:20:25.375Z,-2.52
2019-01-06T02:20:56.562Z,-4.72
2019-01-06T02:21:27.712Z,-2.59
2019-01-06T02:21:58.874Z,-2.62
2019-01-06T02:22:30.023Z,-2.58
2019-01-06T02:23:01.235Z,-2.60
2019-01-06T02:23:32.389Z,-2.60
2019-01-06T02:24:03.602Z,-2.62
2019-01-06T02:24:34.774Z,-2.60
2019-01-06T02:25:05.943Z,-2.53
2019-01-06T02:25:37.107Z,-2.35
2019-01-06T02:26:08.271Z,-2.18
2019-01-06T02:26:39.430Z,-2.07
2019-01-06T02:27:10.603Z,-1.98
2019-01-06T02:27:41.756Z,-1.77
2019-01-06T02:28:12.921Z,-1.75
2019-01-06T02:28:44.177Z,-1.89
2019-01-06T02:29:15.337Z,-1.89
2019-01-06T02:29:46.489Z,-1.93
2019-01-06T02:30:17.654Z,-2.00
2019-01-06T02:30:48.802Z,-2.05
2019-01-06T02:31:19.958Z,-2.09
2019-01-06T02:31:51.112Z,-1.97
2019-01-06T02:32:22.323Z,-1.88
2019-01-06T02:32:53.476Z,-1.80
2019-01-06T02:33:24.636Z,-1.72
2019-01-06T02:33:55.832Z,-1.51
2019-01-06T02:34:26.986Z,-1.41
2019-01-06T02:34:58.147Z,-1.42
2019-01-06T02:35:29.305Z,-1.24
2019-01-06T02:36:00.465Z,-1.06
2019-01-06T02:36:31.636Z,-1.08
2019-01-06T02:37:02.851Z,-1.02
2019-01-06T02:37:34.011Z,-1.03
2019-01-06T02:38:05.176Z,-1.00
2019-01-06T02:38:36.317Z,-0.89
2019-01-06T02:39:07.494Z,-0.81
2019-01-06T02:39:38.646Z,-0.70
2019-01-06T02:40:09.808Z,-0.67
2019-01-06T02:40:40.965Z,-0.69
2019-01-06T02:41:12.118Z,-0.70
2019-01-06T02:41:43.316Z,-0.77
2019-01-06T02:42:14.461Z,-0.75
2019-01-06T02:42:45.615Z,-0.64
2019-01-06T02:43:16.774Z,-0.62
2019-01-06T02:43:47.936Z,-0.65
2019-01-06T02:44:19.110Z,-0.69
2019-01-06T02:44:50.260Z,-0.73
2019-01-06T02:45:21.414Z,-0.63
2019-01-06T02:45:52.562Z,-0.69
2019-01-06T02:46:23.715Z,-0.64
2019-01-06T02:46:54.878Z,-0.67
2019-01-06T02:47:26.026Z,-0.71
2019-01-06T02:47:57.173Z,-0.74
2019-01-06T02:48:28.341Z,-0.66
2019-01-06T02:48:59.502Z,-0.56
2019-01-06T02:49:30.666Z,-0.61
2019-01-06T02:50:01.818Z,-0.60
2019-01-06T02:50:33.013Z,-0.73
2019-01-06T02:51:04.184Z,-0.90
2019-01-06T02:51:35.333Z,-1.02
2019-01-06T02:52:06.542Z,-0.99
2019-01-06T02:52:37.697Z,-0.90
2019-01-06T02:53:08.867Z,-0.95
2019-01-06T02:53:40.027Z,-0.85
2019-01-06T02:54:11.193Z,-0.82
2019-01-06T02:54:42.342Z,-0.81
2019-01-06T02:55:13.540Z,-0.67
2019-01-06T02:55:44.711Z,-0.67
2019-01-06T02:56:18.698Z,-0.68
2019-01-06T02:56:49.849Z,-0.67
2019-01-06T02:57:21.038Z,-0.74
2019-01-06T02:57:52.241Z,-0.76
2019-01-06T02:58:23.397Z,-0.79
2019-01-06T02:58:54.571Z,-0.86
2019-01-06T02:59:27.468Z,-0.87
2019-01-06T02:59:58.623Z,-0.73
2019-01-06T03:00:29.781Z,-0.65
2019-01-06T03:01:00.989Z,-0.44
2019-01-06T03:01:32.171Z,-0.31
2019-01-06T03:02:03.327Z,-0.33
2019-01-06T03:02:34.481Z,-0.33
2019-01-06T03:03:05.686Z,-0.37
2019-01-06T03:03:36.870Z,-0.42
2019-01-06T03:04:08.087Z,-0.53
2019-01-06T03:04:39.264Z,-0.53
2019-01-06T03:05:10.417Z,-0.45
2019-01-06T03:05:41.573Z,-0.47
2019-01-06T03:06:12.725Z,-0.50
2019-01-06T03:06:43.891Z,-0.52
2019-01-06T03:07:15.047Z,-0.60
2019-01-06T03:07:46.194Z,-0.63
2019-01-06T03:08:17.426Z,-0.54
2019-01-06T03:08:48.627Z,-0.54
2019-01-06T03:09:19.764Z,-0.60
2019-01-06T03:09:50.912Z,-0.59
2019-01-06T03:10:22.055Z,-0.59
2019-01-06T03:10:53.210Z,-0.61
2019-01-06T03:11:24.363Z,-0.63
2019-01-06T03:11:55.578Z,-0.54
2019-01-06T03:12:26.680Z,-0.48
2019-01-06T03:12:57.894Z,-0.33
2019-01-06T03:13:29.060Z,-0.33
2019-01-06T03:14:00.218Z,-0.36
2019-01-06T03:14:31.372Z,-0.46
2019-01-06T03:15:02.546Z,-0.59
2019-01-06T03:15:33.679Z,-0.60
2019-01-06T03:16:04.837Z,-0.66
2019-01-06T03:16:35.996Z,-0.76
2019-01-06T03:17:07.179Z,-0.98
2019-01-06T03:17:38.347Z,-0.98
2019-01-06T03:18:09.490Z,-0.97
2019-01-06T03:18:40.648Z,-1.02
2019-01-06T03:19:11.821Z,-1.23
2019-01-06T03:19:42.985Z,-1.32
2019-01-06T03:20:14.186Z,-1.39
2019-01-06T03:20:45.336Z,-1.42
2019-01-06T03:21:16.510Z,-1.43
2019-01-06T03:21:47.720Z,-1.38
2019-01-06T03:22:18.875Z,-1.30
2019-01-06T03:22:50.036Z,-1.14
2019-01-06T03:23:21.184Z,-1.07
2019-01-06T03:23:52.323Z,-0.98
2019-01-06T03:24:23.494Z,-1.01
2019-01-06T03:24:54.684Z,-1.02
2019-01-06T03:25:25.860Z,-1.08
2019-01-06T03:25:57.021Z,-1.10
2019-01-06T03:26:28.178Z,-1.05
2019-01-06T03:26:59.392Z,-1.06
2019-01-06T03:27:30.556Z,-1.16
2019-01-06T03:28:01.716Z,-1.31
2019-01-06T03:28:32.886Z,-1.45
2019-01-06T03:29:04.049Z,-1.56
2019-01-06T03:29:35.209Z,-1.71
2019-01-06T03:30:06.446Z,-1.81
2019-01-06T03:30:37.556Z,-1.84
2019-01-06T03:31:08.716Z,-1.87
2019-01-06T03:31:39.877Z,-1.92
2019-01-06T03:32:11.359Z,-1.96
2019-01-06T03:32:42.532Z,-1.93
2019-01-06T03:33:13.683Z,-1.66
2019-01-06T03:33:44.847Z,-1.40
2019-01-06T03:34:16.017Z,-1.16
2019-01-06T03:34:47.184Z,-0.95
2019-01-06T03:35:18.335Z,-0.82
2019-01-06T03:35:49.535Z,-0.76
2019-01-06T03:36:20.686Z,-0.61
2019-01-06T03:36:51.853Z,-0.20
2019-01-06T03:37:23.005Z,-0.20
2019-01-06T03:37:54.160Z,-0.17
2019-01-06T03:38:25.319Z,-0.22
2019-01-06T03:38:56.524Z,-0.06
2019-01-06T03:39:27.755Z,-0.02
2019-01-06T03:39:58.886Z,-0.04
2019-01-06T03:40:30.040Z,-0.18
2019-01-06T03:41:01.189Z,-0.28
2019-01-06T03:41:32.332Z,-0.33
2019-01-06T03:42:03.480Z,-0.40
2019-01-06T03:42:34.630Z,-0.40
2019-01-06T03:43:05.822Z,-0.41
2019-01-06T03:43:36.982Z,-0.42
2019-01-06T03:44:08.136Z,-0.46
2019-01-06T03:44:39.292Z,-0.54
2019-01-06T03:45:10.489Z,-0.50
2019-01-06T03:45:41.605Z,-0.33
2019-01-06T03:46:12.772Z,-0.33
2019-01-06T03:46:43.905Z,-0.29
2019-01-06T03:47:15.055Z,-0.30
2019-01-06T03:47:46.207Z,-0.29
2019-01-06T03:48:17.424Z,-0.32
2019-01-06T03:48:48.576Z,-0.29
2019-01-06T03:49:19.739Z,-0.31
2019-01-06T03:49:50.891Z,-0.38
2019-01-06T03:50:22.046Z,-0.42
2019-01-06T03:50:53.195Z,-0.46
2019-01-06T03:51:24.349Z,-0.52
2019-01-06T03:51:55.508Z,-0.55
2019-01-06T03:52:26.661Z,-0.57
2019-01-06T03:52:57.825Z,-0.57
2019-01-06T03:53:28.974Z,-0.60
2019-01-06T03:54:00.127Z,-0.62
2019-01-06T03:54:31.335Z,-0.70
2019-01-06T03:55:02.489Z,-0.67
2019-01-06T03:55:33.643Z,-0.71
2019-01-06T03:56:04.836Z,-0.76
2019-01-06T03:56:35.984Z,-0.78
2019-01-06T03:57:07.170Z,-0.78
2019-01-06T03:57:38.327Z,-0.79
2019-01-06T03:58:09.499Z,-0.78
2019-01-06T03:58:40.699Z,-0.79
2019-01-06T03:59:11.867Z,-0.79
2019-01-06T03:59:43.021Z,-0.81
2019-01-06T04:00:14.182Z,-0.91
2019-01-06T04:00:45.345Z,-0.91
2019-01-06T04:01:16.509Z,-0.91
2019-01-06T04:01:47.710Z,-0.91
2019-01-06T04:02:18.876Z,-0.94
2019-01-06T04:02:50.037Z,-0.97
2019-01-06T04:03:21.211Z,-0.99
2019-01-06T04:03:52.369Z,-1.00
2019-01-06T04:04:23.526Z,-1.02
2019-01-06T04:04:54.685Z,-1.13
2019-01-06T04:05:25.860Z,-1.18
2019-01-06T04:05:57.011Z,-1.22
2019-01-06T04:06:28.207Z,-1.25
2019-01-06T04:06:59.424Z,-1.27
2019-01-06T04:07:31.612Z,-1.26
2019-01-06T04:08:02.719Z,-1.27
2019-01-06T04:08:33.930Z,-1.29
2019-01-06T04:09:05.048Z,-1.31
2019-01-06T04:09:36.218Z,-1.32
2019-01-06T04:10:07.368Z,-1.33
2019-01-06T04:10:38.526Z,-1.33
2019-01-06T04:11:15.115Z,-1.33
2019-01-06T04:11:42.649Z,-1.30
2019-01-06T04:12:13.798Z,-1.28
2019-01-06T04:12:44.993Z,-1.26
2019-01-06T04:13:16.166Z,-1.24
2019-01-06T04:13:47.329Z,-1.22
2019-01-06T04:14:18.485Z,-1.16
2019-01-06T04:14:49.653Z,-1.13
2019-01-06T04:15:20.814Z,-1.11
2019-01-06T04:15:51.976Z,-1.10
2019-01-06T04:16:23.169Z,-1.09
2019-01-06T04:16:54.327Z,-1.05
2019-01-06T04:17:25.492Z,-1.05
2019-01-06T04:17:56.651Z,-1.05
2019-01-06T04:18:27.804Z,-1.06
2019-01-06T04:18:58.947Z,-1.06
2019-01-06T04:19:30.198Z,-1.04
2019-01-06T04:20:01.350Z,-1.07
2019-01-06T04:20:32.503Z,-1.04
2019-01-06T04:21:03.729Z,-1.03
2019-01-06T04:21:36.859Z,-1.01
2019-01-06T04:22:07.986Z,-0.98
2019-01-06T04:22:39.164Z,-0.92
2019-01-06T04:23:10.305Z,-0.88
2019-01-06T04:23:41.459Z,-0.75
2019-01-06T04:24:12.626Z,-0.75
2019-01-06T04:24:43.772Z,-0.69
2019-01-06T04:25:14.943Z,-0.60
2019-01-06T04:25:46.095Z,-0.59
2019-01-06T04:26:17.133Z,-0.60
2019-01-06T04:26:53.937Z,-0.55
2019-01-06T04:27:25.920Z,-0.55
2019-01-06T04:27:57.546Z,-0.65
2019-01-06T04:28:39.597Z,-0.67
2019-01-06T04:29:13.706Z,-0.66
2019-01-06T04:29:44.717Z,-0.63
2019-01-06T04:30:18.212Z,-0.61
2019-01-06T04:30:49.442Z,-0.58
2019-01-06T04:31:20.972Z,-0.56
2019-01-06T04:32:45.499Z,-0.56
2019-01-06T04:33:16.735Z,-0.53
2019-01-06T04:33:49.939Z,-0.57
2019-01-06T04:34:22.847Z,-0.64
2019-01-06T04:34:54.376Z,-0.61
2019-01-06T04:35:25.507Z,-0.61
2019-01-06T04:35:58.810Z,-0.62
2019-01-06T04:36:30.028Z,-0.67
2019-01-06T04:37:01.767Z,-0.66
2019-01-06T04:37:32.993Z,-0.66
2019-01-06T04:38:04.848Z,-0.68
2019-01-06T04:38:36.082Z,-0.74
2019-01-06T04:39:07.632Z,-0.74
2019-01-06T04:39:39.382Z,-0.72
2019-01-06T04:40:13.417Z,-0.72
2019-01-06T04:40:45.650Z,-0.74
2019-01-06T04:41:17.878Z,-0.75
2019-01-06T04:41:49.034Z,-0.75
2019-01-06T04:42:20.209Z,-0.72
2019-01-06T04:42:51.364Z,-0.71
2019-01-06T04:43:22.585Z,-0.72
2019-01-06T04:43:53.751Z,-0.68
2019-01-06T04:44:24.909Z,-0.66
2019-01-06T04:44:56.124Z,-0.63
2019-01-06T04:45:27.272Z,-0.62
2019-01-06T04:45:58.426Z,-0.63
2019-01-06T04:46:29.573Z,-0.63
2019-01-06T04:47:00.729Z,-0.55
2019-01-06T04:47:31.882Z,-0.55
2019-01-06T04:48:03.030Z,-0.50
2019-01-06T04:48:34.170Z,-0.47
2019-01-06T04:49:05.308Z,-0.43
2019-01-06T04:49:36.481Z,-0.37
2019-01-06T04:50:07.676Z,-0.29
2019-01-06T04:50:38.835Z,-0.34
2019-01-06T04:51:09.975Z,-0.34
2019-01-06T04:51:41.127Z,-0.39
2019-01-06T04:52:12.268Z,-0.42
2019-01-06T04:52:43.448Z,-0.42
2019-01-06T04:53:14.607Z,-0.49
2019-01-06T04:53:45.766Z,-0.46
2019-01-06T04:54:16.919Z,-0.48
2019-01-06T04:54:48.075Z,-0.53
2019-01-06T04:55:19.284Z,-0.56
2019-01-06T04:55:50.433Z,-0.59
2019-01-06T04:56:21.581Z,-0.61
2019-01-06T04:56:52.731Z,-0.60
2019-01-06T04:57:23.927Z,-0.60
2019-01-06T04:57:55.078Z,-0.61
2019-01-06T04:58:26.238Z,-0.66
2019-01-06T04:58:57.401Z,-0.70
2019-01-06T04:59:28.545Z,-0.64
2019-01-06T04:59:59.731Z,-0.62
2019-01-06T05:00:30.917Z,-0.62
2019-01-06T05:01:02.065Z,-0.58
2019-01-06T05:01:33.211Z,-0.59
2019-01-06T05:02:04.363Z,-0.57
2019-01-06T05:02:35.497Z,-0.55
2019-01-06T05:03:06.640Z,-0.54
2019-01-06T05:03:37.787Z,-0.51
2019-01-06T05:04:08.951Z,-0.48
2019-01-06T05:04:40.114Z,-0.48
2019-01-06T05:05:11.320Z,-0.47
2019-01-06T05:05:42.467Z,-0.46
2019-01-06T05:06:13.630Z,-0.46
2019-01-06T05:06:44.826Z,-0.45
2019-01-06T05:07:15.974Z,-0.44
2019-01-06T05:07:47.131Z,-0.40
2019-01-06T05:08:18.304Z,-0.37
2019-01-06T05:08:49.428Z,-0.37
2019-01-06T05:09:20.587Z,-0.35
2019-01-06T05:09:51.785Z,-0.34
2019-01-06T05:10:22.936Z,-0.32
2019-01-06T05:10:54.131Z,-0.29
2019-01-06T05:11:25.270Z,-0.26
2019-01-06T05:11:56.426Z,-0.24
2019-01-06T05:12:27.572Z,-0.15
2019-01-06T05:12:58.713Z,-0.11
2019-01-06T05:13:29.868Z,-0.13
2019-01-06T05:14:01.041Z,-0.10
2019-01-06T05:14:32.240Z,-0.10
2019-01-06T05:15:03.383Z,0.02
2019-01-06T05:15:34.529Z,0.09
2019-01-06T05:16:05.669Z,0.18
2019-01-06T05:16:36.809Z,0.23
2019-01-06T05:17:07.959Z,0.22
2019-01-06T05:17:39.159Z,0.30
2019-01-06T05:18:10.316Z,0.44
2019-01-06T05:18:41.473Z,0.47
2019-01-06T05:19:12.612Z,0.48
2019-01-06T05:19:43.812Z,0.46
2019-01-06T05:20:14.954Z,0.45
2019-01-06T05:20:46.099Z,0.44
2019-01-06T05:21:17.238Z,0.49
2019-01-06T05:21:48.398Z,0.52
2019-01-06T05:22:19.727Z,0.52
2019-01-06T05:22:50.877Z,0.55
2019-01-06T05:23:22.029Z,0.60
2019-01-06T05:23:53.171Z,0.59
2019-01-06T05:24:24.357Z,0.73
2019-01-06T05:24:55.506Z,0.78
2019-01-06T05:25:26.679Z,0.79
2019-01-06T05:25:57.820Z,0.61
2019-01-06T05:26:28.964Z,0.56
2019-01-06T05:27:00.114Z,0.56
2019-01-06T05:27:31.259Z,0.54
2019-01-06T05:28:02.443Z,0.53
2019-01-06T05:28:33.587Z,0.55
2019-01-06T05:29:04.801Z,0.54
2019-01-06T05:29:35.961Z,0.50
2019-01-06T05:30:07.159Z,0.47
2019-01-06T05:30:38.296Z,0.44
2019-01-06T05:31:09.434Z,0.39
2019-01-06T05:31:40.638Z,0.43
2019-01-06T05:32:11.771Z,0.39
2019-01-06T05:32:42.907Z,0.40
2019-01-06T05:33:14.078Z,0.39
2019-01-06T05:33:45.269Z,0.31
2019-01-06T05:34:16.409Z,0.28
2019-01-06T05:34:47.617Z,0.25
2019-01-06T05:35:18.724Z,0.17
2019-01-06T05:35:49.964Z,0.19
2019-01-06T05:36:21.091Z,0.19
2019-01-06T05:36:52.253Z,0.18
2019-01-06T05:37:23.408Z,0.16
2019-01-06T05:37:54.552Z,0.18
2019-01-06T05:38:25.697Z,0.18
2019-01-06T05:38:56.838Z,0.11
2019-01-06T05:39:27.988Z,0.11
2019-01-06T05:39:59.133Z,0.07
2019-01-06T05:40:30.340Z,0.02
2019-01-06T05:41:01.498Z,0.04
2019-01-06T05:41:32.639Z,0.21
2019-01-06T05:42:03.789Z,0.27
2019-01-06T05:42:34.933Z,0.26
2019-01-06T05:43:06.084Z,0.23
2019-01-06T05:43:37.302Z,0.19
2019-01-06T05:44:08.455Z,0.23
2019-01-06T05:44:39.602Z,0.25
2019-01-06T05:45:10.741Z,0.21
2019-01-06T05:45:41.893Z,0.22
2019-01-06T05:46:13.075Z,0.20
2019-01-06T05:46:44.219Z,0.25
2019-01-06T05:47:15.358Z,0.25
2019-01-06T05:47:46.516Z,0.38
2019-01-06T05:48:17.676Z,0.38
2019-01-06T05:48:48.860Z,0.38
2019-01-06T05:49:20.043Z,0.28
2019-01-06T05:49:51.191Z,0.23
2019-01-06T05:50:22.374Z,0.19
2019-01-06T05:50:53.498Z,0.17
2019-01-06T05:51:24.645Z,0.12
2019-01-06T05:51:55.788Z,0.09
2019-01-06T05:52:26.941Z,0.04
2019-01-06T05:52:58.430Z,0.08
2019-01-06T05:53:29.594Z,0.04
2019-01-06T05:54:00.827Z,0.02
2019-01-06T05:54:32.027Z,0.01
2019-01-06T05:55:04.283Z,0.00
2019-01-06T05:55:36.563Z,0.00
2019-01-06T05:56:07.754Z,0.00
2019-01-06T05:56:39.302Z,0.00
2019-01-06T05:57:11.467Z,0.01
2019-01-06T05:57:42.628Z,0.03
2019-01-06T05:58:17.401Z,0.05
2019-01-06T05:58:48.494Z,0.06
2019-01-06T05:59:19.701Z,-0.35
2019-01-06T05:59:53.472Z,0.08
2019-01-06T06:00:24.990Z,0.08
2019-01-06T06:00:58.187Z,0.11
2019-01-06T06:01:31.346Z,0.11
2019-01-06T06:02:02.597Z,0.11
2019-01-06T06:02:33.776Z,0.09
2019-01-06T06:03:05.895Z,0.12
2019-01-06T06:03:38.553Z,0.15
2019-01-06T06:04:20.325Z,0.18
2019-01-06T06:04:51.515Z,0.19
2019-01-06T06:05:25.034Z,0.19
2019-01-06T06:05:56.196Z,0.18
2019-01-06T06:06:27.819Z,0.19
2019-01-06T06:06:58.971Z,0.20
2019-01-06T06:07:31.194Z,0.28
2019-01-06T06:08:02.191Z,0.28
2019-01-06T06:08:33.431Z,0.28
2019-01-06T06:09:07.922Z,0.29
2019-01-06T06:09:39.147Z,0.30
2019-01-06T06:10:11.348Z,0.28
2019-01-06T06:10:43.937Z,0.28
2019-01-06T06:11:27.104Z,0.27
2019-01-06T06:11:59.112Z,0.29
2019-01-06T06:12:31.311Z,0.29
2019-01-06T06:13:02.593Z,0.40
2019-01-06T06:13:35.081Z,0.38
2019-01-06T06:14:10.152Z,0.37
2019-01-06T06:14:41.214Z,0.37
2019-01-06T06:15:12.414Z,0.25
2019-01-06T06:15:43.551Z,0.25
2019-01-06T06:16:14.706Z,0.25
2019-01-06T06:16:45.851Z,0.26
2019-01-06T06:17:16.989Z,0.26
2019-01-06T06:17:48.133Z,0.22
2019-01-06T06:18:19.274Z,0.25
2019-01-06T06:18:50.474Z,0.24
2019-01-06T06:19:21.704Z,0.24
2019-01-06T06:19:52.860Z,0.26
2019-01-06T06:20:24.006Z,0.26
2019-01-06T06:20:55.152Z,0.26
2019-01-06T06:21:26.304Z,0.29
2019-01-06T06:21:57.456Z,0.31
2019-01-06T06:22:28.755Z,0.28
2019-01-06T06:22:59.979Z,0.27
2019-01-06T06:23:31.153Z,0.30
2019-01-06T06:24:02.405Z,0.30
2019-01-06T06:24:33.505Z,0.30
2019-01-06T06:25:04.660Z,0.28
2019-01-06T06:25:35.812Z,0.24
2019-01-06T06:26:06.973Z,0.25
2019-01-06T06:26:38.115Z,0.28
2019-01-06T06:27:09.271Z,0.30
2019-01-06T06:27:40.421Z,0.36
2019-01-06T06:28:11.563Z,0.42
2019-01-06T06:28:42.698Z,0.41
2019-01-06T06:29:13.893Z,0.43
2019-01-06T06:29:45.047Z,0.51
2019-01-06T06:30:16.223Z,0.63
2019-01-06T06:30:47.346Z,0.80
2019-01-06T06:31:18.471Z,0.87
2019-01-06T06:31:49.617Z,0.87
2019-01-06T06:32:20.772Z,-0.33
2019-01-06T06:32:51.944Z,0.85
2019-01-06T06:33:23.041Z,0.81
2019-01-06T06:33:55.502Z,0.79
2019-01-06T06:34:26.766Z,0.73
2019-01-06T06:34:59.076Z,0.69
2019-01-06T06:35:30.357Z,0.62
2019-01-06T06:36:02.225Z,0.65
2019-01-06T06:36:33.517Z,0.65
2019-01-06T06:37:04.824Z,0.68
2019-01-06T06:37:35.979Z,0.71
2019-01-06T06:38:08.313Z,0.73
2019-01-06T06:38:40.627Z,0.75
2019-01-06T06:39:12.156Z,0.76
2019-01-06T06:39:44.437Z,0.74
2019-01-06T06:40:16.621Z,0.72
2019-01-06T06:40:48.836Z,0.70
2019-01-06T06:41:21.123Z,0.68
2019-01-06T06:41:52.328Z,0.66
2019-01-06T06:42:23.516Z,0.67
2019-01-06T06:42:54.693Z,0.67
2019-01-06T06:43:25.857Z,0.62
2019-01-06T06:43:57.025Z,0.64
2019-01-06T06:44:28.225Z,0.71
2019-01-06T06:44:59.374Z,0.72
2019-01-06T06:45:30.543Z,0.77
2019-01-06T06:46:01.681Z,0.79
2019-01-06T06:46:32.830Z,0.81
2019-01-06T06:47:03.983Z,0.81
2019-01-06T06:47:35.132Z,0.80
2019-01-06T06:48:06.271Z,0.84